Etusivu
METAR-TAF:

METAR-TAF

Lentoasemat :

Saginaw, Michigan, Yhdysvallat

Leveyspiiri: 43-31-58N, Pituuspiiri: 084-04-46W, korkeus merenpinnasta: 204 m

Tämänhetkinen sää

Tämä raportti tehtiin 40 minuuttia sitten, kello 10.53 UTC
Tuuli 13 kn pohjoisesta/koillisesta
Lämpötila 3°C
Kosteus 87%
Ilmanpaine 1008 hPa
Näkyvyys: 16.1 km
selkeää

METAR: KMBS 201053Z 02013KT 10SM CLR 03/01 A2978 RMK AO2 SLP090 T00330011

Aika: 07:33 (11:33 UTC)

Sääennuste

Tämä raportti tehtiin 5 tuntia ja 58 minuuttia sitten, kello 05.35 UTC
Ennuste voimassa 20. päivästä klo 06 UTC - 21. päivään klo 06 UTC
Tuuli 16 kn pohjoisesta/koillisesta
Näkyvyys: 10 km
Pilvistä 3500 ft:n korkeudessa
From 20. päivästä klo 1500 UTC
Tuuli 17 kn pohjoisesta/koillisesta puuskistuen 26 kn:hen
Näkyvyys: 10 km
Hajanaisia pilviä 2200 ft:n korkeudessa
Pilvistä 4000 ft:n korkeudessa

TAF: KMBS 200535Z 2006/2106 03016KT P6SM OVC035 FM201500 03017G26KT P6SM SCT022 OVC040

Säähavainnot ja -ennusteet yli 4000 lentoasemalta (METAR- ja TAF-raportit).

Käytössä olevat sääasemat on merkitty karttaan keltaisilla ja punaisilla pisteillä.

Aseta hiiri pisteen päälle nähdäksesi sääaseman nimen.

Klikkaa sitten nähdäksesi säähavainnot ja -ennusteet.

Kartan vaihtaminen: klikkaa mustalla rastilla varustettuja vihreitä pisteitä, niin voit zoomata sisään; viivalla varustettua vihreää pistettä, niin voit zoomata ulos tai vihreitä nuolia, niin pääset viereisille kartoille.


METAR-TAF: